Current Weather

Aeroflex-Andover Airport

Aeroflex-Andover Airport, New Jersey (K12N)

Report from: Friday, February 23, 2024 2:54 PM EST
Current time: Friday, February 23, 2024 4:08 PM EST

Nearby weather – Weather history – Daily summaries
Weather forecast

Temperature6.7°C (44.1°F)
Wind chill4.2°C (39.5°F)
Dew point2.2°C (36.0°F)
Winds 7 kts (3.6 m/s, 8.1 mph) North-Northeast (30°)
Altimeter29.45 in.Hg (997 mB)
Relative humidity73 %
Density altitude-371 ft. (-113 m)
Sea-level pressure99.8 kPa (998 mB, 29.47 in.Hg)
Remarks Fully automated report
Automated weather observing station without precipitation discriminator
Raw dataK12N 231954Z AUTO 03007KT 07/02 A2945 RMK AO1 SLP980 T00670022
An error has occurred. This application may no longer respond until reloaded. Reload 🗙